createdAt,value
2023-05-14T00:04:54.328Z,12.8
2023-05-14T00:10:00.408Z,12.8
2023-05-14T00:15:06.510Z,12.9
2023-05-14T00:20:12.605Z,12.9
2023-05-14T00:25:18.719Z,12.9
2023-05-14T00:30:24.825Z,12.9
2023-05-14T00:35:30.893Z,12.9
2023-05-14T00:40:36.994Z,12.9
2023-05-14T00:45:43.081Z,12.9
2023-05-14T00:50:49.186Z,12.9
2023-05-14T00:55:55.282Z,12.9
2023-05-14T01:01:00.499Z,12.8
2023-05-14T01:06:06.503Z,12.8
2023-05-14T01:11:12.582Z,12.8
2023-05-14T01:16:18.681Z,12.7
2023-05-14T01:21:24.780Z,12.8
2023-05-14T01:26:30.858Z,12.7
2023-05-14T01:31:36.952Z,12.7
2023-05-14T01:36:43.073Z,12.8
2023-05-14T01:41:49.175Z,12.8
2023-05-14T01:46:55.249Z,12.7
2023-05-14T01:52:01.341Z,12.8
2023-05-14T01:57:07.451Z,12.8
2023-05-14T02:02:12.562Z,12.7
2023-05-14T02:07:18.655Z,12.7
2023-05-14T02:12:24.754Z,12.7
2023-05-14T02:17:30.868Z,12.7
2023-05-14T02:22:36.970Z,12.7
2023-05-14T02:27:43.038Z,12.7
2023-05-14T02:32:49.190Z,12.7
2023-05-14T02:37:55.259Z,12.7
2023-05-14T02:43:01.343Z,12.7
2023-05-14T02:48:07.436Z,12.7
2023-05-14T02:53:13.545Z,12.7
2023-05-14T02:58:19.636Z,12.8
2023-05-14T03:03:25.728Z,12.8
2023-05-14T03:08:30.846Z,12.8
2023-05-14T03:13:36.916Z,12.8
2023-05-14T03:18:43.031Z,12.8
2023-05-14T03:23:49.132Z,12.7
2023-05-14T03:28:55.225Z,12.7
2023-05-14T03:34:01.310Z,12.7
2023-05-14T03:39:07.415Z,12.7
2023-05-14T03:44:13.510Z,12.6
2023-05-14T03:49:19.597Z,12.6
2023-05-14T03:54:25.714Z,12.6
2023-05-14T03:59:31.797Z,12.6
2023-05-14T04:04:37.916Z,12.6
2023-05-14T04:09:44.007Z,12.7
2023-05-14T04:14:49.156Z,12.7
2023-05-14T04:19:55.217Z,12.7
2023-05-14T04:25:01.293Z,12.7
2023-05-14T04:30:07.400Z,12.8
2023-05-14T04:35:13.489Z,12.9
2023-05-14T04:40:19.577Z,13
2023-05-14T04:45:25.715Z,13.1
2023-05-14T04:50:31.791Z,13.1
2023-05-14T04:55:37.877Z,13.2
2023-05-14T05:00:43.970Z,13.3
2023-05-14T05:05:50.081Z,13.5
2023-05-14T05:10:56.172Z,13.5
2023-05-14T05:16:02.298Z,13.6
2023-05-14T05:21:07.370Z,13.8
2023-05-14T05:26:13.467Z,14.1
2023-05-14T05:31:19.570Z,14.3
2023-05-14T05:36:25.674Z,14.2
2023-05-14T05:41:31.767Z,14.5
2023-05-14T05:46:37.859Z,14.7
2023-05-14T05:51:43.956Z,14.7
2023-05-14T05:56:50.063Z,15
2023-05-14T06:01:56.198Z,15.4
2023-05-14T06:07:02.230Z,15.4
2023-05-14T06:12:08.350Z,15.4
2023-05-14T06:17:14.443Z,15.5
2023-05-14T06:22:20.532Z,15.5
2023-05-14T06:27:25.658Z,15.3
2023-05-14T06:32:31.744Z,15.1
2023-05-14T06:37:37.827Z,15.3
2023-05-14T06:42:43.921Z,15.3
2023-05-14T06:47:50.040Z,15.5
2023-05-14T06:52:56.122Z,15.7
2023-05-14T06:58:02.227Z,15.9
2023-05-14T07:03:08.302Z,16.1
2023-05-14T07:08:14.412Z,16
2023-05-14T07:13:20.495Z,16.6
2023-05-14T07:18:26.626Z,16.9
2023-05-14T07:23:32.699Z,17.1
2023-05-14T07:28:38.782Z,17
2023-05-14T07:33:43.926Z,17
2023-05-14T07:38:49.987Z,17.2
2023-05-14T07:43:56.098Z,17.3
2023-05-14T07:49:02.200Z,17.6
2023-05-14T07:54:08.289Z,17.6
2023-05-14T07:59:14.373Z,17.5
2023-05-14T08:04:20.480Z,17.8
2023-05-14T08:09:26.575Z,17.9
2023-05-14T08:14:32.656Z,18.1
2023-05-14T08:19:38.768Z,18.2
2023-05-14T08:24:44.861Z,18.4
2023-05-14T08:29:50.965Z,18.6
2023-05-14T08:34:57.147Z,18.9
2023-05-14T08:40:02.159Z,19.1
2023-05-14T08:45:08.280Z,19.7
2023-05-14T08:50:14.354Z,20.2
2023-05-14T08:55:20.454Z,21
2023-05-14T09:00:26.554Z,22
2023-05-14T09:05:32.647Z,22.8
2023-05-14T09:10:38.735Z,23.9
2023-05-14T09:15:44.855Z,24.2
2023-05-14T09:20:50.931Z,24.3
2023-05-14T09:25:57.027Z,24.6
2023-05-14T09:31:03.126Z,24.4
2023-05-14T09:36:09.208Z,24.5
2023-05-14T09:41:15.314Z,24.7
2023-05-14T09:46:20.414Z,24.7
2023-05-14T09:51:26.522Z,25.7
2023-05-14T09:56:32.612Z,26.3
2023-05-14T10:01:38.739Z,23.1
2023-05-14T10:06:44.809Z,23.6
2023-05-14T10:11:51.020Z,25.7
2023-05-14T10:16:57.010Z,25.1
2023-05-14T10:22:03.100Z,22.2
2023-05-14T10:27:09.250Z,22.8
2023-05-14T10:32:15.325Z,23.4
2023-05-14T10:37:21.385Z,23.4
2023-05-14T10:42:27.474Z,23.4
2023-05-14T10:47:33.634Z,21.7
2023-05-14T10:52:38.737Z,25.2
2023-05-14T10:57:44.803Z,27.1
2023-05-14T11:02:50.995Z,29
2023-05-14T11:07:57.068Z,30.1
2023-05-14T11:13:03.084Z,30.9
2023-05-14T11:18:09.174Z,27.4
2023-05-14T11:23:15.292Z,30.6
2023-05-14T11:28:21.378Z,30
2023-05-14T11:33:27.445Z,24.3
2023-05-14T11:38:33.566Z,22
2023-05-14T11:43:39.647Z,21.5
2023-05-14T11:48:45.752Z,20.8
2023-05-14T11:53:51.853Z,20.9
2023-05-14T11:58:56.953Z,20.8
2023-05-14T12:04:03.092Z,20.6
2023-05-14T12:09:09.159Z,20.4
2023-05-14T12:14:15.235Z,20.4
2023-05-14T12:19:21.326Z,20.5
2023-05-14T12:24:27.480Z,20.6
2023-05-14T12:29:33.542Z,21.3
2023-05-14T12:34:39.629Z,20.9
2023-05-14T12:39:45.749Z,20.8
2023-05-14T12:44:51.819Z,21.4
2023-05-14T12:49:57.927Z,21.5
2023-05-14T12:55:04.050Z,21.3
2023-05-14T13:00:10.135Z,21.4
2023-05-14T13:05:15.227Z,21.7
2023-05-14T13:10:21.326Z,21.5
2023-05-14T13:15:27.420Z,21
2023-05-14T13:20:33.519Z,21.7
2023-05-14T13:25:39.612Z,22.1
2023-05-14T13:30:45.710Z,22.8
2023-05-14T13:35:51.836Z,23.6
2023-05-14T13:40:57.902Z,23.7
2023-05-14T13:46:03.993Z,24.1
2023-05-14T13:51:10.217Z,23.6
2023-05-14T13:56:16.175Z,23.3
2023-05-14T14:01:22.441Z,24
2023-05-14T14:06:28.391Z,24.4
2023-05-14T14:11:33.498Z,24.2
2023-05-14T14:16:39.679Z,23.5
2023-05-14T14:21:45.826Z,21.6
2023-05-14T14:26:51.780Z,22.2
2023-05-14T14:31:57.979Z,22.1
2023-05-14T14:37:04.006Z,22
2023-05-14T14:42:10.120Z,23.5
2023-05-14T14:47:16.165Z,21.5
2023-05-14T14:52:22.337Z,21.3
2023-05-14T14:57:28.397Z,21.2
2023-05-14T15:02:34.459Z,20.9
2023-05-14T15:07:40.566Z,21
2023-05-14T15:12:46.650Z,21.1
2023-05-14T15:17:51.769Z,21.4
2023-05-14T15:22:57.865Z,21.5
2023-05-14T15:28:03.947Z,21.4
2023-05-14T15:33:10.057Z,21.3
2023-05-14T15:38:16.242Z,21.4
2023-05-14T15:43:22.243Z,21.9
2023-05-14T15:48:28.417Z,21.4
2023-05-14T15:53:34.448Z,21.6
2023-05-14T15:58:40.538Z,21.5
2023-05-14T16:03:46.648Z,21.1
2023-05-14T16:08:52.732Z,20.8
2023-05-14T16:13:58.828Z,20.3
2023-05-14T16:19:04.957Z,20.5
2023-05-14T16:24:10.037Z,20.6
2023-05-14T16:29:16.181Z,20.2
2023-05-14T16:34:22.304Z,20
2023-05-14T16:39:28.315Z,20.5
2023-05-14T16:44:34.401Z,21.6
2023-05-14T16:49:40.578Z,23.9
2023-05-14T16:54:46.592Z,26.2
2023-05-14T16:59:52.702Z,27.4
2023-05-14T17:04:58.794Z,27.5
2023-05-14T17:10:04.949Z,27.4
2023-05-14T17:15:10.980Z,27
2023-05-14T17:20:17.098Z,26.1
2023-05-14T17:25:23.172Z,26.1
2023-05-14T17:30:28.322Z,26.7
2023-05-14T17:35:34.416Z,25.1
2023-05-14T17:40:40.486Z,24.5
2023-05-14T17:45:46.647Z,25.2
2023-05-14T17:50:52.684Z,25.4
2023-05-14T17:55:58.851Z,24.6
2023-05-14T18:01:04.891Z,22.6
2023-05-14T18:06:10.987Z,21.3
2023-05-14T18:11:17.169Z,20.6
2023-05-14T18:16:23.192Z,19.8
2023-05-14T18:21:29.289Z,19.3
2023-05-14T18:26:35.385Z,19.1
2023-05-14T18:31:41.480Z,18.9
2023-05-14T18:36:46.571Z,18.6
2023-05-14T18:41:52.682Z,18.4
2023-05-14T18:46:58.878Z,18.1
2023-05-14T18:52:04.939Z,17.7
2023-05-14T18:57:10.998Z,17.5
2023-05-14T19:02:17.139Z,17.2
2023-05-14T19:07:22.251Z,17
2023-05-14T19:12:28.275Z,16.9
2023-05-14T19:17:34.433Z,16.7
2023-05-14T19:22:40.452Z,16.5
2023-05-14T19:27:46.542Z,16.3
2023-05-14T19:32:52.832Z,16.1
2023-05-14T19:37:58.902Z,16
2023-05-14T19:43:05.023Z,15.8
2023-05-14T19:48:11.101Z,15.8
2023-05-14T19:53:17.200Z,15.8
2023-05-14T19:58:23.292Z,15.7
2023-05-14T20:03:29.386Z,15.7
2023-05-14T20:08:35.317Z,15.7
2023-05-14T20:13:40.608Z,15.5
2023-05-14T20:18:46.756Z,15.4
2023-05-14T20:23:52.777Z,15.4
2023-05-14T20:28:58.910Z,15.4
2023-05-14T20:34:04.838Z,15.4
2023-05-14T20:39:11.108Z,15.2
2023-05-14T20:44:16.998Z,15
2023-05-14T20:49:23.337Z,15
2023-05-14T20:54:29.369Z,14.9
2023-05-14T20:59:35.485Z,14.7
2023-05-14T21:04:41.550Z,14.4
2023-05-14T21:09:47.678Z,14.2
2023-05-14T21:14:53.745Z,14
2023-05-14T21:19:58.881Z,13.8
2023-05-14T21:25:04.952Z,13.7
2023-05-14T21:30:11.030Z,13.4
2023-05-14T21:35:16.975Z,13.4
2023-05-14T21:40:23.279Z,13.2
2023-05-14T21:45:29.174Z,13
2023-05-14T21:50:35.351Z,12.8
2023-05-14T21:55:41.472Z,12.5
2023-05-14T22:00:47.515Z,12.3
2023-05-14T22:05:53.731Z,12.2
2023-05-14T22:10:59.716Z,12.1
2023-05-14T22:16:05.790Z,11.9
2023-05-14T22:21:11.841Z,11.8
2023-05-14T22:26:16.998Z,11.8
2023-05-14T22:31:23.079Z,11.7
2023-05-14T22:36:29.243Z,11.6
2023-05-14T22:41:35.273Z,11.6
2023-05-14T22:46:41.409Z,11.6
2023-05-14T22:51:47.444Z,11.5
2023-05-14T22:56:53.578Z,11.5
2023-05-14T23:01:59.639Z,11.7
2023-05-14T23:07:05.772Z,11.8
2023-05-14T23:12:11.852Z,11.8
2023-05-14T23:17:17.992Z,11.8
2023-05-14T23:22:24.028Z,11.6
2023-05-14T23:27:30.136Z,11.6
2023-05-14T23:32:35.229Z,11.7
2023-05-14T23:37:41.375Z,11.6
2023-05-14T23:42:47.420Z,11.5
2023-05-14T23:47:53.561Z,11.4
2023-05-14T23:52:59.694Z,11.4
2023-05-14T23:58:05.734Z,11.3
